createdAt,value
2023-04-30T00:00:08.618Z,66.08
2023-04-30T00:02:38.486Z,66.70
2023-04-30T00:05:06.119Z,67.67
2023-04-30T00:07:33.840Z,66.05
2023-04-30T00:10:01.157Z,67.23
2023-04-30T00:12:28.696Z,66.19
2023-04-30T00:14:56.505Z,66.37
2023-04-30T00:17:23.994Z,63.27
2023-04-30T00:19:51.805Z,62.90
2023-04-30T00:22:19.011Z,65.22
2023-04-30T00:24:46.165Z,69.31
2023-04-30T00:27:13.602Z,69.01
2023-04-30T00:29:41.225Z,70.22
2023-04-30T00:32:08.446Z,70.05
2023-04-30T00:34:35.998Z,70.51
2023-04-30T00:37:03.711Z,70.71
2023-04-30T00:39:30.814Z,71.83
2023-04-30T00:41:59.692Z,71.01
2023-04-30T00:44:26.814Z,69.96
2023-04-30T00:46:54.159Z,69.34
2023-04-30T00:49:22.122Z,68.75
2023-04-30T00:51:49.539Z,65.04
2023-04-30T00:54:16.714Z,67.17
2023-04-30T00:56:44.252Z,70.16
2023-04-30T00:59:11.406Z,68.85
2023-04-30T01:01:38.645Z,70.32
2023-04-30T01:04:06.393Z,70.10
2023-04-30T01:06:33.549Z,70.12
2023-04-30T01:09:01.222Z,71.19
2023-04-30T01:11:33.760Z,71.61
2023-04-30T01:14:16.507Z,70.21
2023-04-30T01:16:47.849Z,72.66
2023-04-30T01:19:18.224Z,73.58
2023-04-30T01:21:45.700Z,73.47
2023-04-30T01:24:25.368Z,74.00
2023-04-30T01:26:53.951Z,72.89
2023-04-30T01:29:21.313Z,72.31
2023-04-30T01:31:48.546Z,73.76
2023-04-30T01:34:16.210Z,73.02
2023-04-30T01:37:02.233Z,74.47
2023-04-30T01:39:38.732Z,75.07
2023-04-30T01:42:06.895Z,71.60
2023-04-30T01:44:34.392Z,73.93
2023-04-30T01:47:05.763Z,69.44
2023-04-30T01:49:54.614Z,66.80
2023-04-30T01:52:35.136Z,69.47
2023-04-30T01:55:09.128Z,73.99
2023-04-30T01:57:44.220Z,74.04
2023-04-30T02:00:12.046Z,74.91
2023-04-30T02:02:40.597Z,76.07
2023-04-30T02:05:08.431Z,77.01
2023-04-30T02:07:42.752Z,76.99
2023-04-30T02:10:12.011Z,78.82
2023-04-30T02:12:39.404Z,78.12
2023-04-30T02:15:07.053Z,77.89
2023-04-30T02:17:34.643Z,78.25
2023-04-30T02:20:01.792Z,77.51
2023-04-30T02:22:29.050Z,71.99
2023-04-30T02:24:57.391Z,68.94
2023-04-30T02:27:25.451Z,68.94
2023-04-30T02:29:52.988Z,71.11
2023-04-30T02:32:20.488Z,74.37
2023-04-30T02:34:47.651Z,74.00
2023-04-30T02:37:14.802Z,75.59
2023-04-30T02:39:42.962Z,71.20
2023-04-30T02:42:28.666Z,69.16
2023-04-30T02:44:56.107Z,66.94
2023-04-30T02:47:23.316Z,66.04
2023-04-30T02:49:50.609Z,66.10
2023-04-30T02:52:18.282Z,74.16
2023-04-30T02:54:45.597Z,78.80
2023-04-30T02:57:12.764Z,72.89
2023-04-30T02:59:40.202Z,71.13
2023-04-30T03:02:07.381Z,70.84
2023-04-30T03:04:34.595Z,71.62
2023-04-30T03:07:03.458Z,73.29
2023-04-30T03:09:31.369Z,73.46
2023-04-30T03:11:58.500Z,74.09
2023-04-30T03:14:26.289Z,74.35
2023-04-30T03:16:53.524Z,74.09
2023-04-30T03:19:25.019Z,74.78
2023-04-30T03:21:52.561Z,77.46
2023-04-30T03:24:19.851Z,75.82
2023-04-30T03:26:47.117Z,75.47
2023-04-30T03:29:14.566Z,75.42
2023-04-30T03:31:42.725Z,75.51
2023-04-30T03:34:09.980Z,75.65
2023-04-30T03:36:37.918Z,74.87
2023-04-30T03:39:05.226Z,74.23
2023-04-30T03:41:33.845Z,75.03
2023-04-30T03:44:01.395Z,76.29
2023-04-30T03:46:28.620Z,76.14
2023-04-30T03:48:56.133Z,76.89
2023-04-30T03:51:23.648Z,78.34
2023-04-30T03:53:50.845Z,78.06
2023-04-30T03:56:18.260Z,78.46
2023-04-30T03:58:45.733Z,78.76
2023-04-30T04:01:12.894Z,79.41
2023-04-30T04:03:40.443Z,82.75
2023-04-30T04:06:07.694Z,84.54
2023-04-30T04:08:36.249Z,85.13
2023-04-30T04:11:03.717Z,83.62
2023-04-30T04:13:31.167Z,82.23
2023-04-30T04:15:59.252Z,81.25
2023-04-30T04:18:26.706Z,80.71
2023-04-30T04:20:54.842Z,82.48
2023-04-30T04:23:22.723Z,83.09
2023-04-30T04:25:50.895Z,83.34
2023-04-30T04:28:18.113Z,83.80
2023-04-30T04:30:45.809Z,83.14
2023-04-30T04:33:13.209Z,85.49
2023-04-30T04:35:40.711Z,85.83
2023-04-30T04:38:08.073Z,85.27
2023-04-30T04:40:36.054Z,83.94
2023-04-30T04:43:03.355Z,86.40
2023-04-30T04:45:31.618Z,84.73
2023-04-30T04:47:59.469Z,84.82
2023-04-30T04:50:27.668Z,83.69
2023-04-30T04:52:55.074Z,83.32
2023-04-30T04:55:23.245Z,84.00
2023-04-30T04:57:50.500Z,84.53
2023-04-30T05:00:18.573Z,85.56
2023-04-30T05:02:46.304Z,85.83
2023-04-30T05:05:13.497Z,85.15
2023-04-30T05:07:40.725Z,84.35
2023-04-30T05:10:08.737Z,83.77
2023-04-30T05:12:35.982Z,83.97
2023-04-30T05:15:04.674Z,83.45
2023-04-30T05:17:32.314Z,84.01
2023-04-30T05:19:59.462Z,82.09
2023-04-30T05:22:26.642Z,80.88
2023-04-30T05:24:54.152Z,81.14
2023-04-30T05:27:21.695Z,80.79
2023-04-30T05:29:48.877Z,81.45
2023-04-30T05:32:16.479Z,80.91
2023-04-30T05:34:43.641Z,81.16
2023-04-30T05:37:12.702Z,80.46
2023-04-30T05:39:40.122Z,78.71
2023-04-30T05:42:07.486Z,77.82
2023-04-30T05:44:34.611Z,76.95
2023-04-30T05:47:02.013Z,78.54
2023-04-30T05:49:29.379Z,79.63
2023-04-30T05:51:56.682Z,80.62
2023-04-30T05:54:24.115Z,81.13
2023-04-30T05:56:51.250Z,85.17
2023-04-30T05:59:18.540Z,81.64
2023-04-30T06:01:48.653Z,83.69
2023-04-30T06:04:16.078Z,82.15
2023-04-30T06:06:43.405Z,82.17
2023-04-30T06:09:10.777Z,83.75
2023-04-30T06:11:39.024Z,80.24
2023-04-30T06:14:07.551Z,81.43
2023-04-30T06:16:34.748Z,84.80
2023-04-30T06:19:02.297Z,82.68
2023-04-30T06:21:29.465Z,80.27
2023-04-30T06:23:56.622Z,79.13
2023-04-30T06:26:24.057Z,79.02
2023-04-30T06:28:51.271Z,78.10
2023-04-30T06:31:18.483Z,78.60
2023-04-30T06:33:45.954Z,77.77
2023-04-30T06:36:13.316Z,78.67
2023-04-30T06:38:40.625Z,80.79
2023-04-30T06:41:08.086Z,79.71
2023-04-30T06:43:35.244Z,77.56
2023-04-30T06:46:02.427Z,76.98
2023-04-30T06:48:29.880Z,75.30
2023-04-30T06:50:57.051Z,75.24
2023-04-30T06:53:24.215Z,75.37
2023-04-30T06:55:52.159Z,78.41
2023-04-30T06:58:19.929Z,75.58
2023-04-30T07:00:47.100Z,75.35
2023-04-30T07:03:14.730Z,71.52
2023-04-30T07:05:42.079Z,70.24
2023-04-30T07:08:09.276Z,67.25
2023-04-30T07:10:36.912Z,64.77
2023-04-30T07:13:04.057Z,66.36
2023-04-30T07:15:31.202Z,62.02
2023-04-30T07:17:58.790Z,59.02
2023-04-30T07:20:26.103Z,60.09
2023-04-30T07:22:54.572Z,60.65
2023-04-30T07:25:22.031Z,60.84
2023-04-30T07:27:49.255Z,58.87
2023-04-30T07:30:16.440Z,57.53
2023-04-30T07:32:44.261Z,56.06
2023-04-30T07:35:11.673Z,56.89
2023-04-30T07:37:41.003Z,56.79
2023-04-30T07:40:17.155Z,54.56
2023-04-30T07:42:46.544Z,53.77
2023-04-30T07:45:14.010Z,52.51
2023-04-30T07:47:43.326Z,50.93
2023-04-30T07:50:10.834Z,49.26
2023-04-30T07:52:38.246Z,54.48
2023-04-30T07:55:05.870Z,53.58
2023-04-30T07:57:33.005Z,51.38
2023-04-30T08:00:00.430Z,50.98
2023-04-30T08:02:27.767Z,49.91
2023-04-30T08:04:55.297Z,51.70
2023-04-30T08:07:22.543Z,51.71
2023-04-30T08:09:49.651Z,49.98
2023-04-30T08:12:17.110Z,50.45
2023-04-30T08:14:44.260Z,50.59
2023-04-30T08:17:12.077Z,50.70
2023-04-30T08:19:39.528Z,47.99
2023-04-30T08:22:06.690Z,50.69
2023-04-30T08:24:33.834Z,49.66
2023-04-30T08:27:03.992Z,46.97
2023-04-30T08:29:31.179Z,46.19
2023-04-30T08:31:58.992Z,45.72
2023-04-30T08:34:26.420Z,45.81
2023-04-30T08:36:53.641Z,46.45
2023-04-30T08:39:21.098Z,45.76
2023-04-30T08:41:51.475Z,45.18
2023-04-30T08:44:18.651Z,49.50
2023-04-30T08:46:46.372Z,46.46
2023-04-30T08:49:13.815Z,50.16
2023-04-30T08:51:41.126Z,49.22
2023-04-30T08:54:09.751Z,48.43
2023-04-30T08:56:37.627Z,47.39
2023-04-30T08:59:04.767Z,49.41
2023-04-30T09:01:31.942Z,48.49
2023-04-30T09:03:59.563Z,47.71
2023-04-30T09:06:27.371Z,45.56
2023-04-30T09:08:54.646Z,45.24
2023-04-30T09:11:22.815Z,45.64
2023-04-30T09:13:51.050Z,47.30
2023-04-30T09:16:18.594Z,47.47
2023-04-30T09:18:47.199Z,46.11
2023-04-30T09:21:14.394Z,47.76
2023-04-30T09:24:00.474Z,47.00
2023-04-30T09:26:31.608Z,48.01
2023-04-30T09:28:59.082Z,49.59
2023-04-30T09:31:26.843Z,49.73
2023-04-30T09:33:54.400Z,49.90
2023-04-30T09:36:21.578Z,49.88
2023-04-30T09:38:48.719Z,49.71
2023-04-30T09:41:23.505Z,49.92
2023-04-30T09:43:51.090Z,50.43
2023-04-30T09:46:22.131Z,50.95
2023-04-30T09:48:58.997Z,51.33
2023-04-30T09:51:27.105Z,50.77
2023-04-30T09:53:54.534Z,47.46
2023-04-30T09:56:23.222Z,46.26
2023-04-30T09:58:52.370Z,45.89
2023-04-30T10:01:20.191Z,45.94
2023-04-30T10:03:48.398Z,45.26
2023-04-30T10:06:16.793Z,44.69
2023-04-30T10:08:45.433Z,43.89
2023-04-30T10:11:16.603Z,42.12
2023-04-30T10:13:46.321Z,44.96
2023-04-30T10:16:24.276Z,44.86
2023-04-30T10:18:52.321Z,43.66
2023-04-30T10:21:21.321Z,43.69
2023-04-30T10:23:48.532Z,43.36
2023-04-30T10:26:16.973Z,44.98
2023-04-30T10:28:44.389Z,43.15
2023-04-30T10:31:11.631Z,43.36
2023-04-30T10:33:49.625Z,43.52
2023-04-30T10:36:47.067Z,44.55
2023-04-30T10:39:15.026Z,43.97
2023-04-30T10:41:44.690Z,42.49
2023-04-30T10:44:12.086Z,42.77
2023-04-30T10:46:39.505Z,41.80
2023-04-30T10:49:07.482Z,43.10
2023-04-30T10:51:51.936Z,41.88
2023-04-30T10:54:23.053Z,43.09
2023-04-30T10:56:50.368Z,40.92
2023-04-30T10:59:17.553Z,41.68
2023-04-30T11:02:01.405Z,42.56
2023-04-30T11:04:28.802Z,42.02
2023-04-30T11:07:07.200Z,42.36
2023-04-30T11:09:40.521Z,42.37
2023-04-30T11:12:15.182Z,43.39
2023-04-30T11:14:43.390Z,45.23
2023-04-30T11:17:11.569Z,43.62
2023-04-30T11:19:51.807Z,42.38
2023-04-30T11:22:19.986Z,41.52
2023-04-30T11:24:49.910Z,41.35
2023-04-30T11:27:27.118Z,42.01
2023-04-30T11:29:55.290Z,42.24
2023-04-30T11:32:23.350Z,42.39
2023-04-30T11:34:50.629Z,40.79
2023-04-30T11:37:34.177Z,40.35
2023-04-30T11:40:02.677Z,39.35
2023-04-30T11:42:31.283Z,40.48
2023-04-30T11:45:07.700Z,38.13
2023-04-30T11:47:38.955Z,39.05
2023-04-30T11:50:07.348Z,37.04
2023-04-30T11:52:34.734Z,38.32
2023-04-30T11:55:05.309Z,39.42
2023-04-30T11:57:35.873Z,39.94
2023-04-30T12:00:10.774Z,40.58
2023-04-30T12:02:39.700Z,39.75
2023-04-30T12:05:33.186Z,39.77
2023-04-30T12:08:04.368Z,40.63
2023-04-30T12:10:31.726Z,40.92
2023-04-30T12:12:58.904Z,40.65
2023-04-30T12:15:27.365Z,41.35
2023-04-30T12:17:55.912Z,41.69
2023-04-30T12:20:23.672Z,42.38
2023-04-30T12:22:51.119Z,43.01
2023-04-30T12:25:18.897Z,43.43
2023-04-30T12:27:46.821Z,42.98
2023-04-30T12:30:14.259Z,42.80
2023-04-30T12:32:42.524Z,43.17
2023-04-30T12:35:14.590Z,42.55
2023-04-30T12:37:45.171Z,41.37
2023-04-30T12:40:13.255Z,41.09
2023-04-30T12:42:43.806Z,41.10
2023-04-30T12:45:11.691Z,39.55
2023-04-30T12:47:40.644Z,41.11
2023-04-30T12:50:12.356Z,38.58
2023-04-30T12:52:40.791Z,38.09
2023-04-30T12:55:14.534Z,39.37
2023-04-30T12:57:42.478Z,39.10
2023-04-30T13:00:09.949Z,39.07
2023-04-30T13:02:37.111Z,39.03
2023-04-30T13:05:04.635Z,39.44
2023-04-30T13:07:40.855Z,39.19
2023-04-30T13:10:08.538Z,39.38
2023-04-30T13:12:35.690Z,40.00
2023-04-30T13:15:03.950Z,39.32
2023-04-30T13:17:31.499Z,39.67
2023-04-30T13:19:58.728Z,39.59
2023-04-30T13:22:29.595Z,38.18
2023-04-30T13:24:57.079Z,39.09
2023-04-30T13:27:24.281Z,38.56
2023-04-30T13:29:51.428Z,38.21
2023-04-30T13:32:18.932Z,39.48
2023-04-30T13:34:46.087Z,37.38
2023-04-30T13:37:13.260Z,38.05
2023-04-30T13:39:40.835Z,37.88
2023-04-30T13:42:08.182Z,37.81
2023-04-30T13:44:36.673Z,38.41
2023-04-30T13:47:04.237Z,38.80
2023-04-30T13:49:32.536Z,38.19
2023-04-30T13:51:59.693Z,37.53
2023-04-30T13:54:27.424Z,38.41
2023-04-30T13:56:55.454Z,37.22
2023-04-30T13:59:23.489Z,38.99
2023-04-30T14:01:50.918Z,38.28
2023-04-30T14:04:18.699Z,38.77
2023-04-30T14:06:46.098Z,38.41
2023-04-30T14:09:13.356Z,38.37
2023-04-30T14:11:41.461Z,38.81
2023-04-30T14:14:08.975Z,38.53
2023-04-30T14:16:36.177Z,39.58
2023-04-30T14:19:03.691Z,38.51
2023-04-30T14:21:33.042Z,39.17
2023-04-30T14:24:00.220Z,38.76
2023-04-30T14:26:27.610Z,39.60
2023-04-30T14:28:54.791Z,38.78
2023-04-30T14:31:22.067Z,39.33
2023-04-30T14:33:49.574Z,38.30
2023-04-30T14:36:16.965Z,38.91
2023-04-30T14:38:44.186Z,37.79
2023-04-30T14:41:12.363Z,38.31
2023-04-30T14:43:39.797Z,38.79
2023-04-30T14:46:07.041Z,38.87
2023-04-30T14:48:34.548Z,38.80
2023-04-30T14:51:01.707Z,38.40
2023-04-30T14:53:28.895Z,38.24
2023-04-30T14:55:56.787Z,38.47
2023-04-30T14:58:23.971Z,39.11
2023-04-30T15:00:51.167Z,39.12
2023-04-30T15:03:18.663Z,40.25
2023-04-30T15:05:46.135Z,39.52
2023-04-30T15:08:13.282Z,38.73
2023-04-30T15:10:40.873Z,38.41
2023-04-30T15:13:08.034Z,38.25
2023-04-30T15:15:37.150Z,37.16
2023-04-30T15:18:05.834Z,37.57
2023-04-30T15:20:33.020Z,37.11
2023-04-30T15:23:00.157Z,37.79
2023-04-30T15:25:27.681Z,37.72
2023-04-30T15:27:54.885Z,37.72
2023-04-30T15:30:22.101Z,36.31
2023-04-30T15:32:50.497Z,37.50
2023-04-30T15:35:17.924Z,37.97
2023-04-30T15:37:45.099Z,37.23
2023-04-30T15:40:15.434Z,36.93
2023-04-30T15:42:42.954Z,37.00
2023-04-30T15:45:10.676Z,38.14
2023-04-30T15:47:38.485Z,39.51
2023-04-30T15:50:06.103Z,42.94
2023-04-30T15:52:33.241Z,45.20
2023-04-30T15:55:00.886Z,45.89
2023-04-30T15:57:28.219Z,45.20
2023-04-30T15:59:56.415Z,46.47
2023-04-30T16:02:24.268Z,47.52
2023-04-30T16:04:51.686Z,48.00
2023-04-30T16:07:18.819Z,48.66
2023-04-30T16:09:48.903Z,48.30
2023-04-30T16:12:16.442Z,49.04
2023-04-30T16:14:43.732Z,49.17
2023-04-30T16:17:11.345Z,49.98
2023-04-30T16:19:38.943Z,49.51
2023-04-30T16:22:06.381Z,49.14
2023-04-30T16:24:33.562Z,49.68
2023-04-30T16:27:01.212Z,49.76
2023-04-30T16:29:28.366Z,50.37
2023-04-30T16:31:56.418Z,50.72
2023-04-30T16:34:23.981Z,49.94
2023-04-30T16:36:51.152Z,49.64
2023-04-30T16:39:18.318Z,49.80
2023-04-30T16:41:47.997Z,48.99
2023-04-30T16:44:15.188Z,48.96
2023-04-30T16:46:43.484Z,49.22
2023-04-30T16:49:11.458Z,49.41
2023-04-30T16:51:38.837Z,49.15
2023-04-30T16:54:06.795Z,49.83
2023-04-30T16:56:34.430Z,48.92
2023-04-30T16:59:01.656Z,48.68
2023-04-30T17:01:29.029Z,49.23
2023-04-30T17:03:56.729Z,50.36
2023-04-30T17:06:23.946Z,50.44
2023-04-30T17:08:53.165Z,49.72
2023-04-30T17:11:23.379Z,50.38
2023-04-30T17:13:50.790Z,50.82
2023-04-30T17:16:18.016Z,51.63
2023-04-30T17:18:45.579Z,50.21
2023-04-30T17:21:12.749Z,50.41
2023-04-30T17:23:40.909Z,50.54
2023-04-30T17:26:08.544Z,50.70
2023-04-30T17:28:37.514Z,51.28
2023-04-30T17:31:07.266Z,53.95
2023-04-30T17:33:35.349Z,53.43
2023-04-30T17:36:02.639Z,53.77
2023-04-30T17:38:30.407Z,54.60
2023-04-30T17:41:00.058Z,54.41
2023-04-30T17:43:27.658Z,55.34
2023-04-30T17:45:56.623Z,56.24
2023-04-30T17:48:24.929Z,56.45
2023-04-30T17:50:52.642Z,57.24
2023-04-30T17:53:19.876Z,57.93
2023-04-30T17:55:47.672Z,57.69
2023-04-30T17:58:15.573Z,57.89
2023-04-30T18:00:44.878Z,57.88
2023-04-30T18:03:13.985Z,58.08
2023-04-30T18:05:42.429Z,57.79
2023-04-30T18:08:10.414Z,57.62
2023-04-30T18:10:38.815Z,57.27
2023-04-30T18:13:07.348Z,56.68
2023-04-30T18:15:34.679Z,55.26
2023-04-30T18:18:02.354Z,56.43
2023-04-30T18:20:29.665Z,55.01
2023-04-30T18:22:56.972Z,54.94
2023-04-30T18:25:24.790Z,54.40
2023-04-30T18:27:52.071Z,54.20
2023-04-30T18:30:19.721Z,52.29
2023-04-30T18:32:47.619Z,52.52
2023-04-30T18:35:14.924Z,51.58
2023-04-30T18:37:42.245Z,50.99
2023-04-30T18:40:09.979Z,52.41
2023-04-30T18:42:38.901Z,52.14
2023-04-30T18:45:06.697Z,53.17
2023-04-30T18:47:34.218Z,54.31
2023-04-30T18:50:01.497Z,53.15
2023-04-30T18:52:28.708Z,52.81
2023-04-30T18:54:57.024Z,51.61
2023-04-30T18:57:24.428Z,51.95
2023-04-30T18:59:52.165Z,52.82
2023-04-30T19:02:21.869Z,52.15
2023-04-30T19:04:50.594Z,53.46
2023-04-30T19:07:18.012Z,51.31
2023-04-30T19:09:48.304Z,50.63
2023-04-30T19:12:15.770Z,50.74
2023-04-30T19:14:43.850Z,51.00
2023-04-30T19:17:13.027Z,51.08
2023-04-30T19:19:41.640Z,52.00
2023-04-30T19:22:09.014Z,54.12
2023-04-30T19:24:37.046Z,57.56
2023-04-30T19:27:04.693Z,59.04
2023-04-30T19:29:32.540Z,57.75
2023-04-30T19:32:00.600Z,58.20
2023-04-30T19:34:27.976Z,60.13
2023-04-30T19:36:56.020Z,56.52
2023-04-30T19:39:29.334Z,56.57
2023-04-30T19:41:57.139Z,55.24
2023-04-30T19:44:25.809Z,52.76
2023-04-30T19:46:55.098Z,52.27
2023-04-30T19:49:26.030Z,53.61
2023-04-30T19:51:54.800Z,56.68
2023-04-30T19:54:23.035Z,61.88
2023-04-30T19:56:53.124Z,63.54
2023-04-30T19:59:21.869Z,62.91
2023-04-30T20:01:49.892Z,61.68
2023-04-30T20:04:17.537Z,58.52
2023-04-30T20:06:44.920Z,59.01
2023-04-30T20:09:12.687Z,60.01
2023-04-30T20:11:41.351Z,62.15
2023-04-30T20:14:09.172Z,60.43
2023-04-30T20:16:36.672Z,60.23
2023-04-30T20:19:04.349Z,59.33
2023-04-30T20:21:32.190Z,59.88
2023-04-30T20:24:00.757Z,60.12
2023-04-30T20:26:28.917Z,63.11
2023-04-30T20:28:56.887Z,64.77
2023-04-30T20:31:25.057Z,66.71
2023-04-30T20:33:53.439Z,64.49
2023-04-30T20:36:21.722Z,64.53
2023-04-30T20:38:49.111Z,66.10
2023-04-30T20:41:17.104Z,66.36
2023-04-30T20:43:44.277Z,68.00
2023-04-30T20:46:13.879Z,68.33
2023-04-30T20:48:41.816Z,67.84
2023-04-30T20:51:09.265Z,66.54
2023-04-30T20:53:36.397Z,65.01
2023-04-30T20:56:04.483Z,64.31
2023-04-30T20:58:31.598Z,67.76
2023-04-30T21:00:58.915Z,70.93
2023-04-30T21:03:27.058Z,71.51
2023-04-30T21:05:54.741Z,71.92
2023-04-30T21:08:21.940Z,69.82
2023-04-30T21:10:50.536Z,69.67
2023-04-30T21:13:17.717Z,67.54
2023-04-30T21:15:45.494Z,65.48
2023-04-30T21:18:12.977Z,63.65
2023-04-30T21:20:40.198Z,62.71
2023-04-30T21:23:07.342Z,63.65
2023-04-30T21:25:36.097Z,62.32
2023-04-30T21:28:03.720Z,62.09
2023-04-30T21:30:31.346Z,63.80
2023-04-30T21:32:59.344Z,63.86
2023-04-30T21:35:27.851Z,64.06
2023-04-30T21:37:55.455Z,64.47
2023-04-30T21:40:22.981Z,65.31
2023-04-30T21:42:50.470Z,69.28
2023-04-30T21:45:18.237Z,70.36
2023-04-30T21:47:47.086Z,71.46
2023-04-30T21:50:14.522Z,72.45
2023-04-30T21:52:41.681Z,71.90
2023-04-30T21:55:09.747Z,68.70
2023-04-30T21:57:36.897Z,67.54
2023-04-30T22:00:07.230Z,65.57
2023-04-30T22:02:35.388Z,65.01
2023-04-30T22:05:04.296Z,64.05
2023-04-30T22:07:31.440Z,63.60
2023-04-30T22:09:58.828Z,63.62
2023-04-30T22:12:26.738Z,63.71
2023-04-30T22:14:56.810Z,63.81
2023-04-30T22:17:24.790Z,64.36
2023-04-30T22:19:52.259Z,65.02
2023-04-30T22:22:19.418Z,64.19
2023-04-30T22:24:46.663Z,63.15
2023-04-30T22:27:14.158Z,62.02
2023-04-30T22:29:41.952Z,62.71
2023-04-30T22:32:09.903Z,61.56
2023-04-30T22:34:38.166Z,62.52
2023-04-30T22:37:05.490Z,62.73
2023-04-30T22:39:32.808Z,62.69
2023-04-30T22:42:00.250Z,67.27
2023-04-30T22:44:27.438Z,70.99
2023-04-30T22:46:57.916Z,68.70
2023-04-30T22:49:31.126Z,67.16
2023-04-30T22:51:59.189Z,66.64
2023-04-30T22:54:26.654Z,66.27
2023-04-30T22:56:53.785Z,64.79
2023-04-30T22:59:23.222Z,63.99
2023-04-30T23:01:50.629Z,62.21
2023-04-30T23:04:17.773Z,61.46
2023-04-30T23:06:45.033Z,62.68
2023-04-30T23:09:12.827Z,63.01
2023-04-30T23:11:40.257Z,64.00
2023-04-30T23:14:08.192Z,64.00
2023-04-30T23:16:35.722Z,64.49
2023-04-30T23:19:02.961Z,64.31
2023-04-30T23:21:30.629Z,64.27
2023-04-30T23:23:58.089Z,63.19
2023-04-30T23:26:25.262Z,62.62
2023-04-30T23:28:52.467Z,62.45
2023-04-30T23:31:19.995Z,63.18
2023-04-30T23:33:47.158Z,64.22
2023-04-30T23:36:14.576Z,65.52
2023-04-30T23:38:42.918Z,68.34
2023-04-30T23:41:10.146Z,69.35
2023-04-30T23:43:37.445Z,71.89
2023-04-30T23:46:04.915Z,70.25
2023-04-30T23:48:32.591Z,69.55
2023-04-30T23:51:03.488Z,68.34
2023-04-30T23:53:31.028Z,67.74
2023-04-30T23:55:58.523Z,67.80
2023-04-30T23:58:25.778Z,70.14
